Time;durP1;ratioP1;P1;durP2;ratioP2;P2;SDS_P1;SDS_P2;PMS_P1;PMS_P2;Temp;Humidity;BMP_temperature;BMP_pressure;BME280_temperature;BME280_humidity;BME280_pressure;Samples;Min_cycle;Max_cycle;Signal;HPM_P1;HPM_P2
2023/04/08 00:00:13;;;;;;;5.80;3.80;;;;;;;;;;5004437;28;21251;-77
2023/04/08 00:02:39;;;;;;;5.20;4.18;;;;;;;;;;5007461;28;20029;-76
2023/04/08 00:05:06;;;;;;;7.47;4.25;;;;;;;;;;5020134;28;20029;-78
2023/04/08 00:07:32;;;;;;;5.22;3.97;;;;;;;;;;5008842;28;20029;-75
2023/04/08 00:09:58;;;;;;;5.57;4.65;;;;;;;;;;5013141;28;20559;-75
2023/04/08 00:12:24;;;;;;;8.70;4.80;;;;;;;;;;5010897;28;20116;-77
2023/04/08 00:14:50;;;;;;;8.73;4.30;;;;;;;;;;5012655;28;20026;-76
2023/04/08 00:17:16;;;;;;;8.82;5.32;;;;;;;;;;5016093;28;20032;-77
2023/04/08 00:19:43;;;;;;;9.52;4.60;;;;;;;;;;5012363;28;20033;-77
2023/04/08 00:22:10;;;;;;;7.30;4.63;;;;;;;;;;5015004;28;20025;-78
2023/04/08 00:24:36;;;;;;;7.35;4.80;;;;;;;;;;5009790;28;20105;-76
2023/04/08 00:27:02;;;;;;;6.57;4.75;;;;;;;;;;5011335;28;20444;-75
2023/04/08 00:29:28;;;;;;;6.32;4.80;;;;;;;;;;5017871;28;20041;-75
2023/04/08 00:31:55;;;;;;;9.38;5.15;;;;;;;;;;5011197;28;20025;-74
2023/04/08 00:34:21;;;;;;;12.68;6.35;;;;;;;;;;5011919;28;20044;-77
2023/04/08 00:36:47;;;;;;;9.48;4.75;;;;;;;;;;5010970;28;20025;-75
2023/04/08 00:39:14;;;;;;;7.15;4.72;;;;;;;;;;5013653;28;20025;-75
2023/04/08 00:41:40;;;;;;;7.43;5.53;;;;;;;;;;5019772;28;20390;-75
2023/04/08 00:44:06;;;;;;;9.65;5.10;;;;;;;;;;5010581;28;20371;-75
2023/04/08 00:46:36;;;;;;;7.70;5.05;;;;;;;;;;5013081;28;20387;-75
2023/04/08 00:49:02;;;;;;;10.70;5.03;;;;;;;;;;5026749;28;20053;-75
2023/04/08 00:51:30;;;;;;;9.88;5.38;;;;;;;;;;5026601;28;20440;-75
2023/04/08 00:53:56;;;;;;;9.73;5.20;;;;;;;;;;5032823;28;20051;-76
2023/04/08 00:56:23;;;;;;;7.03;5.30;;;;;;;;;;5021498;28;20115;-75
2023/04/08 00:58:53;;;;;;;8.07;5.40;;;;;;;;;;5030830;28;20025;-74
2023/04/08 01:01:29;;;;;;;13.15;5.90;;;;;;;;;;5032191;28;20028;-75
2023/04/08 01:04:08;;;;;;;8.93;6.13;;;;;;;;;;5041950;28;20021;-76
2023/04/08 01:06:45;;;;;;;8.70;5.60;;;;;;;;;;5050141;28;20147;-75
2023/04/08 01:09:13;;;;;;;8.20;5.30;;;;;;;;;;5026513;28;20029;-76
2023/04/08 01:11:43;;;;;;;8.52;6.13;;;;;;;;;;5027068;28;20063;-76
2023/04/08 01:14:09;;;;;;;7.75;5.88;;;;;;;;;;5033269;28;20086;-76
2023/04/08 01:16:37;;;;;;;9.68;5.85;;;;;;;;;;5027904;28;20029;-75
2023/04/08 01:19:05;;;;;;;9.55;6.22;;;;;;;;;;5032380;28;20028;-75
2023/04/08 01:21:31;;;;;;;10.02;6.88;;;;;;;;;;5039974;28;20114;-74
2023/04/08 01:24:08;;;;;;;8.35;6.82;;;;;;;;;;5032511;28;20450;-75
2023/04/08 01:26:35;;;;;;;10.57;6.50;;;;;;;;;;5039967;28;20067;-75
2023/04/08 01:29:02;;;;;;;12.07;7.53;;;;;;;;;;5039900;28;20028;-75
2023/04/08 01:31:30;;;;;;;12.07;6.93;;;;;;;;;;5036809;28;20044;-75
2023/04/08 01:33:57;;;;;;;11.60;8.20;;;;;;;;;;5040092;28;20032;-75
2023/04/08 01:36:23;;;;;;;11.93;7.10;;;;;;;;;;5032462;28;20281;-76
2023/04/08 01:38:50;;;;;;;12.60;7.32;;;;;;;;;;5035012;28;20025;-77
2023/04/08 01:41:17;;;;;;;11.07;7.80;;;;;;;;;;5042758;28;20440;-75
2023/04/08 01:43:44;;;;;;;9.90;6.88;;;;;;;;;;5032484;28;20477;-76
2023/04/08 01:46:11;;;;;;;12.05;7.95;;;;;;;;;;5031562;28;20052;-77
2023/04/08 01:48:37;;;;;;;12.80;7.55;;;;;;;;;;5035871;28;20037;-76
2023/04/08 01:51:04;;;;;;;11.00;8.38;;;;;;;;;;5027079;28;20075;-78
2023/04/08 01:53:31;;;;;;;12.27;8.10;;;;;;;;;;5028746;28;20037;-75
2023/04/08 01:56:00;;;;;;;12.93;7.38;;;;;;;;;;5021713;28;20048;-74
2023/04/08 01:58:29;;;;;;;16.70;9.38;;;;;;;;;;5018983;28;20021;-75
2023/04/08 02:00:56;;;;;;;12.75;8.82;;;;;;;;;;5007512;28;20053;-75
2023/04/08 02:03:23;;;;;;;12.50;8.80;;;;;;;;;;5013160;28;20030;-76
2023/04/08 02:05:49;;;;;;;21.02;10.40;;;;;;;;;;5008762;28;20061;-78
2023/04/08 02:08:15;;;;;;;12.68;9.55;;;;;;;;;;5008932;28;20113;-76
2023/04/08 02:10:41;;;;;;;14.07;8.55;;;;;;;;;;5011601;28;20129;-76
2023/04/08 02:13:07;;;;;;;15.15;9.00;;;;;;;;;;5012885;28;20029;-77
2023/04/08 02:15:34;;;;;;;13.15;8.95;;;;;;;;;;5010497;28;20049;-76
2023/04/08 02:18:06;;;;;;;13.18;9.45;;;;;;;;;;5011160;28;20107;-76
2023/04/08 02:20:42;;;;;;;11.98;9.32;;;;;;;;;;5013723;28;21834;-75
2023/04/08 02:23:10;;;;;;;13.05;9.73;;;;;;;;;;5007788;28;20026;-76
2023/04/08 02:25:38;;;;;;;13.55;9.55;;;;;;;;;;5013588;28;20167;-76
2023/04/08 02:28:05;;;;;;;15.43;9.80;;;;;;;;;;5008436;28;20386;-76
2023/04/08 02:30:32;;;;;;;15.00;9.10;;;;;;;;;;5011106;28;20480;-76
2023/04/08 02:32:59;;;;;;;14.63;10.05;;;;;;;;;;5007029;28;20037;-75
2023/04/08 02:35:26;;;;;;;19.83;10.70;;;;;;;;;;5008213;28;20021;-75
2023/04/08 02:37:52;;;;;;;14.13;10.32;;;;;;;;;;5012575;28;20029;-75
2023/04/08 02:40:28;;;;;;;13.88;10.43;;;;;;;;;;5009327;28;20036;-76
2023/04/08 02:42:55;;;;;;;19.10;11.38;;;;;;;;;;5024391;28;20025;-75
2023/04/08 02:45:21;;;;;;;16.00;11.52;;;;;;;;;;5013678;28;20045;-75
2023/04/08 02:47:48;;;;;;;19.27;11.60;;;;;;;;;;5007997;28;20056;-75
2023/04/08 02:50:14;;;;;;;15.95;10.82;;;;;;;;;;5005299;28;20469;-77
2023/04/08 02:52:41;;;;;;;18.48;11.52;;;;;;;;;;5024750;28;20071;-75
2023/04/08 02:55:08;;;;;;;15.18;10.90;;;;;;;;;;5009180;28;20045;-76
2023/04/08 02:57:36;;;;;;;16.65;11.98;;;;;;;;;;5031131;28;20120;-75
2023/04/08 03:00:03;;;;;;;15.05;11.18;;;;;;;;;;5026989;28;20064;-75
2023/04/08 03:02:29;;;;;;;18.23;11.52;;;;;;;;;;5032233;28;20417;-75
2023/04/08 03:04:55;;;;;;;15.27;11.50;;;;;;;;;;5045585;28;20029;-76
2023/04/08 03:07:21;;;;;;;18.63;11.98;;;;;;;;;;5033149;28;20040;-75
2023/04/08 03:09:47;;;;;;;19.08;12.45;;;;;;;;;;5033888;28;20368;-75
2023/04/08 03:12:13;;;;;;;16.52;11.70;;;;;;;;;;5031400;28;20485;-75
2023/04/08 03:14:39;;;;;;;18.05;12.15;;;;;;;;;;5030286;28;20112;-75
2023/04/08 03:17:06;;;;;;;15.70;12.00;;;;;;;;;;5048853;28;20074;-75
2023/04/08 03:19:32;;;;;;;19.73;12.43;;;;;;;;;;5025632;28;20274;-75
2023/04/08 03:21:58;;;;;;;19.48;11.50;;;;;;;;;;5033984;28;20025;-75
2023/04/08 03:24:24;;;;;;;20.90;12.18;;;;;;;;;;5030438;28;20831;-74
2023/04/08 03:26:51;;;;;;;22.20;13.25;;;;;;;;;;5037525;28;20173;-75
2023/04/08 03:29:17;;;;;;;19.92;13.05;;;;;;;;;;5032788;28;20732;-75
2023/04/08 03:31:43;;;;;;;22.23;13.43;;;;;;;;;;5032823;28;20079;-74
2023/04/08 03:34:10;;;;;;;18.55;13.60;;;;;;;;;;5031391;28;20025;-75
2023/04/08 03:36:36;;;;;;;20.98;14.13;;;;;;;;;;5034992;28;20116;-74
2023/04/08 03:39:02;;;;;;;19.50;12.90;;;;;;;;;;5032026;28;20036;-75
2023/04/08 03:41:28;;;;;;;19.70;14.32;;;;;;;;;;5034252;28;20473;-74
2023/04/08 03:43:54;;;;;;;18.77;14.00;;;;;;;;;;5033976;28;20087;-74
2023/04/08 03:46:21;;;;;;;22.55;13.80;;;;;;;;;;5030345;28;20052;-75
2023/04/08 03:48:47;;;;;;;18.30;13.23;;;;;;;;;;5031362;28;20068;-75
2023/04/08 03:51:15;;;;;;;18.80;13.57;;;;;;;;;;5032454;28;20031;-75
2023/04/08 03:53:41;;;;;;;24.50;15.07;;;;;;;;;;5030399;28;20028;-74
2023/04/08 03:56:07;;;;;;;28.95;15.23;;;;;;;;;;5030109;28;20502;-76
2023/04/08 03:58:33;;;;;;;22.88;14.95;;;;;;;;;;5022964;28;20387;-75
2023/04/08 04:00:59;;;;;;;20.88;15.00;;;;;;;;;;5012342;28;20116;-76
2023/04/08 04:03:25;;;;;;;19.35;13.68;;;;;;;;;;5018744;28;20105;-75
2023/04/08 04:05:52;;;;;;;24.20;15.77;;;;;;;;;;5013959;28;20434;-76
2023/04/08 04:08:18;;;;;;;22.75;14.95;;;;;;;;;;5017780;28;20033;-76
2023/04/08 04:10:44;;;;;;;21.92;15.50;;;;;;;;;;5024770;28;20122;-76
2023/04/08 04:13:10;;;;;;;20.88;16.10;;;;;;;;;;5018211;28;20033;-76
2023/04/08 04:15:40;;;;;;;22.45;14.35;;;;;;;;;;5006015;28;20132;-75
2023/04/08 04:18:07;;;;;;;23.75;16.02;;;;;;;;;;5011849;28;20068;-77
2023/04/08 04:20:33;;;;;;;23.83;14.90;;;;;;;;;;5020011;28;20374;-76
2023/04/08 04:22:59;;;;;;;25.05;16.27;;;;;;;;;;5015886;28;20037;-77
2023/04/08 04:25:25;;;;;;;21.27;15.77;;;;;;;;;;5016103;28;20529;-75
2023/04/08 04:27:51;;;;;;;22.25;16.60;;;;;;;;;;5009225;28;20470;-75
2023/04/08 04:30:18;;;;;;;24.65;16.17;;;;;;;;;;5010044;28;20751;-76
2023/04/08 04:32:44;;;;;;;23.92;16.73;;;;;;;;;;5005786;28;20083;-75
2023/04/08 04:35:13;;;;;;;22.35;15.85;;;;;;;;;;5027291;28;20140;-76
2023/04/08 04:37:39;;;;;;;22.02;15.63;;;;;;;;;;5016869;28;20553;-74
2023/04/08 04:40:06;;;;;;;24.40;15.43;;;;;;;;;;5017835;28;20485;-75
2023/04/08 04:42:32;;;;;;;23.05;15.50;;;;;;;;;;5007696;28;20030;-74
2023/04/08 04:44:59;;;;;;;25.42;15.48;;;;;;;;;;5022039;28;20025;-75
2023/04/08 04:47:25;;;;;;;23.92;16.17;;;;;;;;;;5015804;28;20030;-74
2023/04/08 04:49:51;;;;;;;24.85;16.58;;;;;;;;;;5015289;28;20028;-75
2023/04/08 04:52:17;;;;;;;22.00;15.40;;;;;;;;;;5027456;28;20500;-74
2023/04/08 04:54:44;;;;;;;23.13;16.40;;;;;;;;;;5015730;28;20728;-75
2023/04/08 04:57:10;;;;;;;22.45;15.45;;;;;;;;;;5016854;28;20072;-75
2023/04/08 04:59:38;;;;;;;23.00;16.10;;;;;;;;;;5013400;28;20026;-74
2023/04/08 05:02:04;;;;;;;23.58;15.73;;;;;;;;;;5007162;28;20029;-74
2023/04/08 05:04:30;;;;;;;23.90;16.02;;;;;;;;;;5015208;28;20033;-74
2023/04/08 05:06:58;;;;;;;22.90;16.58;;;;;;;;;;5012188;28;20041;-76
2023/04/08 05:09:24;;;;;;;27.42;17.33;;;;;;;;;;5015138;28;20521;-77
2023/04/08 05:11:51;;;;;;;26.77;17.20;;;;;;;;;;5018082;28;20033;-76
2023/04/08 05:14:17;;;;;;;24.45;17.30;;;;;;;;;;5015071;28;20022;-74
2023/04/08 05:16:43;;;;;;;23.30;16.63;;;;;;;;;;5019183;28;20083;-75
2023/04/08 05:19:09;;;;;;;24.45;17.30;;;;;;;;;;4995038;28;20025;-78
2023/04/08 05:21:35;;;;;;;37.58;22.95;;;;;;;;;;5010617;28;20075;-76
2023/04/08 05:24:01;;;;;;;38.63;24.20;;;;;;;;;;5013225;28;20104;-77
2023/04/08 05:26:27;;;;;;;27.40;19.35;;;;;;;;;;5019942;28;20128;-75
2023/04/08 05:28:53;;;;;;;29.40;19.17;;;;;;;;;;5011460;28;20180;-76
2023/04/08 05:31:20;;;;;;;26.08;18.45;;;;;;;;;;5018056;28;20024;-73
2023/04/08 05:33:46;;;;;;;28.80;19.58;;;;;;;;;;5013389;28;20033;-75
2023/04/08 05:36:13;;;;;;;28.95;18.25;;;;;;;;;;5011744;28;20390;-77
2023/04/08 05:38:42;;;;;;;30.58;19.13;;;;;;;;;;5021515;28;20422;-76
2023/04/08 05:41:08;;;;;;;30.05;19.25;;;;;;;;;;5019846;28;20159;-77
2023/04/08 05:43:34;;;;;;;27.88;20.15;;;;;;;;;;5020667;28;20474;-78
2023/04/08 05:46:00;;;;;;;28.67;19.13;;;;;;;;;;5033482;28;20036;-75
2023/04/08 05:48:26;;;;;;;32.60;19.98;;;;;;;;;;5013226;28;20041;-76
2023/04/08 05:50:52;;;;;;;27.77;19.52;;;;;;;;;;5012545;28;20057;-74
2023/04/08 05:53:19;;;;;;;25.83;18.55;;;;;;;;;;4995848;28;20418;-75
2023/04/08 05:55:45;;;;;;;29.17;20.27;;;;;;;;;;4991997;28;20146;-75
2023/04/08 05:58:11;;;;;;;27.55;19.60;;;;;;;;;;5007237;28;20146;-76
2023/04/08 06:00:37;;;;;;;30.80;20.30;;;;;;;;;;5005959;28;20037;-74
2023/04/08 06:03:03;;;;;;;31.90;19.77;;;;;;;;;;5007320;28;20033;-75
2023/04/08 06:05:30;;;;;;;28.55;20.02;;;;;;;;;;5006417;28;20171;-79
2023/04/08 06:07:56;;;;;;;28.65;21.45;;;;;;;;;;5004251;28;20037;-80
2023/04/08 06:10:23;;;;;;;29.13;20.75;;;;;;;;;;5008269;28;20030;-79
2023/04/08 06:12:49;;;;;;;29.48;20.58;;;;;;;;;;5006344;28;20044;-78
2023/04/08 06:15:15;;;;;;;30.33;20.80;;;;;;;;;;5006203;28;20029;-78
2023/04/08 06:17:41;;;;;;;33.13;22.35;;;;;;;;;;5006847;28;20735;-76
2023/04/08 06:20:11;;;;;;;32.53;22.25;;;;;;;;;;5024848;28;20036;-75
2023/04/08 06:22:37;;;;;;;35.78;24.30;;;;;;;;;;4999069;28;20041;-76
2023/04/08 06:25:03;;;;;;;45.08;28.95;;;;;;;;;;5010619;28;20036;-76
2023/04/08 06:27:29;;;;;;;37.58;25.65;;;;;;;;;;5007525;28;20037;-74
2023/04/08 06:29:56;;;;;;;36.10;23.10;;;;;;;;;;5010826;28;20044;-77
2023/04/08 06:32:22;;;;;;;33.95;22.80;;;;;;;;;;4998081;28;20029;-76
2023/04/08 06:34:48;;;;;;;31.45;23.55;;;;;;;;;;5017779;28;20080;-76
2023/04/08 06:37:14;;;;;;;34.70;23.77;;;;;;;;;;5024359;28;20022;-76
2023/04/08 06:39:40;;;;;;;36.30;22.27;;;;;;;;;;5006033;28;20044;-77
2023/04/08 06:42:06;;;;;;;30.52;21.65;;;;;;;;;;4996757;28;20041;-75
2023/04/08 06:44:32;;;;;;;30.30;21.88;;;;;;;;;;5015983;28;20041;-73
2023/04/08 06:46:59;;;;;;;29.05;20.63;;;;;;;;;;5014789;28;20025;-76
2023/04/08 06:49:26;;;;;;;26.67;20.13;;;;;;;;;;5016200;28;20059;-76
2023/04/08 06:51:52;;;;;;;26.77;19.73;;;;;;;;;;5019177;28;20021;-76
2023/04/08 06:54:18;;;;;;;25.00;18.67;;;;;;;;;;5027412;28;20040;-77
2023/04/08 06:56:44;;;;;;;30.27;20.90;;;;;;;;;;5008187;28;20084;-78
2023/04/08 06:59:10;;;;;;;27.05;20.63;;;;;;;;;;5008933;28;20506;-81
2023/04/08 07:01:36;;;;;;;27.50;21.30;;;;;;;;;;4999624;28;20048;-76
2023/04/08 07:04:02;;;;;;;28.05;20.38;;;;;;;;;;5003440;28;20349;-76
2023/04/08 07:06:29;;;;;;;38.90;27.27;;;;;;;;;;5007168;28;20117;-77
2023/04/08 07:08:55;;;;;;;47.10;30.65;;;;;;;;;;5008848;28;20038;-76
2023/04/08 07:11:21;;;;;;;27.77;21.08;;;;;;;;;;5005074;28;20129;-78
2023/04/08 07:13:47;;;;;;;32.85;20.98;;;;;;;;;;5005730;28;20136;-77
2023/04/08 07:16:14;;;;;;;32.00;21.40;;;;;;;;;;5007840;28;20076;-77
2023/04/08 07:18:41;;;;;;;30.67;23.25;;;;;;;;;;5006569;28;20026;-76
2023/04/08 07:21:07;;;;;;;28.65;22.00;;;;;;;;;;5007699;28;20034;-76
2023/04/08 07:23:33;;;;;;;30.60;23.17;;;;;;;;;;5024769;28;20053;-76
2023/04/08 07:26:05;;;;;;;31.30;21.85;;;;;;;;;;5008175;28;20502;-75
2023/04/08 07:28:31;;;;;;;31.23;22.60;;;;;;;;;;5023329;28;20037;-76
2023/04/08 07:31:07;;;;;;;30.05;21.73;;;;;;;;;;5006892;28;20095;-74
2023/04/08 07:33:34;;;;;;;33.25;21.83;;;;;;;;;;5007646;28;20152;-75
2023/04/08 07:36:00;;;;;;;29.45;22.77;;;;;;;;;;5008067;28;20056;-75
2023/04/08 07:38:26;;;;;;;26.83;21.50;;;;;;;;;;5008676;28;20087;-74
2023/04/08 07:40:52;;;;;;;28.80;20.63;;;;;;;;;;5009319;28;20041;-77
2023/04/08 07:43:19;;;;;;;26.58;20.42;;;;;;;;;;5008277;28;20056;-77
2023/04/08 07:45:45;;;;;;;34.15;21.80;;;;;;;;;;5008839;28;20037;-79
2023/04/08 07:48:11;;;;;;;26.75;19.73;;;;;;;;;;5009890;28;20033;-76
2023/04/08 07:50:37;;;;;;;38.28;26.50;;;;;;;;;;5008929;28;20145;-74
2023/04/08 07:53:03;;;;;;;32.42;22.58;;;;;;;;;;5012803;28;20109;-76
2023/04/08 07:55:33;;;;;;;26.42;20.38;;;;;;;;;;5010780;28;20056;-76
2023/04/08 07:58:00;;;;;;;23.42;19.05;;;;;;;;;;5009621;28;20029;-75
2023/04/08 08:00:26;;;;;;;25.58;20.33;;;;;;;;;;5014019;28;20106;-77
2023/04/08 08:02:52;;;;;;;24.38;18.52;;;;;;;;;;4996781;28;20125;-76
2023/04/08 08:05:18;;;;;;;26.20;18.63;;;;;;;;;;5014779;28;20051;-76
2023/04/08 08:07:44;;;;;;;23.33;18.08;;;;;;;;;;5027942;28;20104;-77
2023/04/08 08:10:10;;;;;;;21.35;18.15;;;;;;;;;;5015617;28;20037;-77
2023/04/08 08:12:37;;;;;;;24.30;17.90;;;;;;;;;;5011113;28;20034;-76
2023/04/08 08:15:03;;;;;;;21.85;16.67;;;;;;;;;;5015442;28;20063;-76
2023/04/08 08:17:32;;;;;;;25.00;16.42;;;;;;;;;;5015264;28;20033;-76
2023/04/08 08:19:58;;;;;;;23.73;16.98;;;;;;;;;;5008411;28;20048;-76
2023/04/08 08:22:24;;;;;;;18.98;15.75;;;;;;;;;;5007791;28;20467;-76
2023/04/08 08:24:55;;;;;;;25.05;18.20;;;;;;;;;;5031438;28;20045;-76
2023/04/08 08:27:21;;;;;;;23.60;17.85;;;;;;;;;;5012805;28;20080;-76
2023/04/08 08:29:48;;;;;;;22.27;17.17;;;;;;;;;;5012353;28;20046;-75
2023/04/08 08:32:14;;;;;;;23.80;16.52;;;;;;;;;;4997711;28;20033;-75
2023/04/08 08:34:40;;;;;;;23.25;17.52;;;;;;;;;;5002048;28;20068;-74
2023/04/08 08:37:06;;;;;;;21.15;17.42;;;;;;;;;;5008814;28;20038;-75
2023/04/08 08:39:32;;;;;;;21.92;16.90;;;;;;;;;;5010952;28;20037;-74
2023/04/08 08:41:59;;;;;;;23.58;17.65;;;;;;;;;;5030885;28;20058;-75
2023/04/08 08:44:26;;;;;;;20.95;16.83;;;;;;;;;;5029777;28;20036;-74
2023/04/08 08:46:52;;;;;;;20.42;16.63;;;;;;;;;;4999980;28;20034;-75
2023/04/08 08:49:18;;;;;;;22.50;16.90;;;;;;;;;;4998217;28;20025;-75
2023/04/08 08:51:46;;;;;;;19.75;16.58;;;;;;;;;;5013831;28;20029;-76
2023/04/08 08:54:12;;;;;;;19.25;17.00;;;;;;;;;;5014394;28;20029;-75
2023/04/08 08:56:38;;;;;;;20.50;17.38;;;;;;;;;;5014770;28;20115;-75
2023/04/08 08:59:04;;;;;;;21.13;17.25;;;;;;;;;;5028611;28;20167;-77
2023/04/08 09:01:31;;;;;;;20.33;16.95;;;;;;;;;;5028735;28;20117;-75
2023/04/08 09:04:18;;;;;;;24.40;17.30;;;;;;;;;;5011982;28;20532;-76
2023/04/08 09:06:45;;;;;;;19.02;15.40;;;;;;;;;;5010490;28;20033;-76
2023/04/08 09:09:11;;;;;;;19.67;16.77;;;;;;;;;;5014229;28;20065;-77
2023/04/08 09:11:41;;;;;;;18.65;15.23;;;;;;;;;;5006464;28;20036;-78
2023/04/08 09:14:37;;;;;;;18.85;14.98;;;;;;;;;;5013327;28;20049;-77
2023/04/08 09:17:03;;;;;;;14.25;12.75;;;;;;;;;;4999587;28;20042;-76
2023/04/08 09:19:29;;;;;;;14.40;12.32;;;;;;;;;;5013846;28;20029;-75
2023/04/08 09:22:09;;;;;;;13.80;11.80;;;;;;;;;;5014708;28;20071;-76
2023/04/08 09:24:36;;;;;;;13.35;11.13;;;;;;;;;;5010211;28;20026;-76
2023/04/08 09:27:02;;;;;;;10.73;9.45;;;;;;;;;;5026033;28;20154;-79
2023/04/08 09:29:28;;;;;;;12.60;10.57;;;;;;;;;;5007808;28;20075;-76
2023/04/08 09:31:58;;;;;;;13.10;9.75;;;;;;;;;;5010907;28;20089;-76
2023/04/08 09:34:26;;;;;;;16.80;10.02;;;;;;;;;;4996504;28;20087;-76
2023/04/08 09:36:53;;;;;;;9.13;8.23;;;;;;;;;;5000891;28;20105;-77
2023/04/08 09:39:19;;;;;;;9.98;7.75;;;;;;;;;;5007922;28;20080;-78
2023/04/08 09:41:48;;;;;;;8.13;7.30;;;;;;;;;;5007295;28;20030;-77
2023/04/08 09:44:16;;;;;;;11.35;9.60;;;;;;;;;;5025464;28;20474;-77
2023/04/08 09:46:51;;;;;;;10.90;8.10;;;;;;;;;;5002065;28;20044;-77
2023/04/08 09:49:25;;;;;;;8.20;7.32;;;;;;;;;;5005046;28;20057;-77
2023/04/08 09:52:07;;;;;;;9.07;7.68;;;;;;;;;;5006110;28;20103;-79
2023/04/08 09:55:05;;;;;;;8.23;7.40;;;15.60;99.90;;;;;;5005929;28;20163;-79
2023/04/08 09:57:36;;;;;;;7.85;7.05;;;;;;;;;;5019855;28;20099;-79
2023/04/08 10:00:23;;;;;;;8.50;7.45;;;;;;;;;;5020234;28;20037;-79
2023/04/08 10:02:49;;;;;;;7.78;7.05;;;;;;;;;;5006874;28;20474;-78
2023/04/08 10:05:16;;;;;;;7.53;6.72;;;;;;;;;;5007072;28;20422;-82
2023/04/08 10:07:42;;;;;;;10.27;7.20;;;;;;;;;;5006153;28;20037;-80
2023/04/08 10:10:10;;;;;;;7.93;6.78;;;;;;;;;;5000701;28;20092;-79
2023/04/08 10:12:37;;;;;;;9.52;7.15;;;;;;;;;;5006835;28;20029;-77
2023/04/08 10:15:22;;;;;;;8.27;7.03;;;;;;;;;;5005605;28;20068;-78
2023/04/08 10:17:48;;;;;;;9.75;7.53;;;;;;;;;;5007113;28;20742;-77
2023/04/08 10:20:33;;;;;;;9.07;7.53;;;;;;;;;;5007107;28;20029;-77
2023/04/08 10:23:02;;;;;;;8.38;7.47;;;;;;;;;;5004709;28;20040;-76
2023/04/08 10:25:32;;;;;;;9.90;7.70;;;;;;;;;;5007227;28;20116;-76
2023/04/08 10:27:58;;;;;;;10.70;8.32;;;;;;;;;;5004466;28;20060;-77
2023/04/08 10:30:27;;;;;;;10.95;7.65;;;;;;;;;;4996441;28;20108;-76
2023/04/08 10:33:00;;;;;;;10.93;7.90;;;;;;;;;;5002392;28;20447;-76
2023/04/08 10:35:30;;;;;;;8.73;7.15;;;;;;;;;;5004074;28;20040;-75
2023/04/08 10:37:57;;;;;;;9.05;6.90;;;;;;;;;;4990142;28;20037;-75
2023/04/08 10:40:23;;;;;;;10.23;7.80;;;;;;;;;;5005488;28;20045;-76
2023/04/08 10:42:56;;;;;;;11.52;8.50;;;;;;;;;;4990320;28;20037;-75
2023/04/08 10:45:22;;;;;;;10.90;8.32;;;;;;;;;;5005659;28;20489;-76
2023/04/08 10:47:48;;;;;;;12.95;10.05;;;;;;;;;;5003786;28;20029;-76
2023/04/08 10:50:15;;;;;;;13.48;9.93;;;;;;;;;;5024978;28;20136;-79
2023/04/08 10:52:47;;;;;;;11.20;9.00;;;;;;;;;;5011593;28;20041;-75
2023/04/08 10:55:13;;;;;;;12.82;9.82;;;;;;;;;;5003310;28;20327;-84
2023/04/08 10:57:40;;;;;;;11.80;9.70;;;;;;;;;;5005308;28;20183;-81
2023/04/08 11:00:10;;;;;;;14.48;10.65;;;;;;;;;;4989306;28;20086;-81
2023/04/08 11:02:38;;;;;;;14.73;10.75;;;;;;;;;;5005165;28;20136;-77
2023/04/08 11:05:04;;;;;;;13.63;10.88;;;;;;;;;;5005330;28;20045;-79
2023/04/08 11:07:30;;;;;;;15.70;11.40;;;;;;;;;;5009005;28;20030;-79
2023/04/08 11:09:56;;;;;;;14.27;11.18;;;;;;;;;;5008667;28;20083;-79
2023/04/08 11:12:22;;;;;;;13.80;10.70;;;;;;;;;;5000124;28;20061;-79
2023/04/08 11:14:51;;;;;;;15.30;11.40;;;;;;;;;;5026954;28;20025;-80
2023/04/08 11:17:18;;;;;;;13.68;10.80;;;;;;;;;;4995034;28;20454;-79
2023/04/08 11:19:44;;;;;;;14.82;10.10;;;;;;;;;;4989744;28;20060;-79
2023/04/08 11:22:12;;;;;;;11.38;9.65;;;;;;;;;;4995115;28;20037;-79
2023/04/08 11:24:38;;;;;;;14.18;10.73;;;;;;;;;;5014354;28;20036;-79
2023/04/08 11:27:08;;;;;;;16.52;10.50;;;;;;;;;;5013224;28;20421;-79
2023/04/08 11:29:35;;;;;;;12.23;10.15;;;;;;;;;;5016441;28;20033;-78
2023/04/08 11:32:01;;;;;;;12.75;10.80;;;;;;;;;;5001043;28;20482;-79
2023/04/08 11:34:27;;;;;;;12.80;10.45;;;;;;;;;;5005114;28;20404;-79
2023/04/08 11:36:53;;;;;;;13.45;10.20;;;;;;;;;;5007537;28;20637;-79
2023/04/08 11:39:23;;;;;;;13.93;11.00;;;;;;;;;;5033328;28;20045;-79
2023/04/08 11:41:49;;;;;;;12.73;10.45;;;;;;;;;;5016222;28;20025;-80
2023/04/08 11:44:15;;;;;;;15.13;11.63;;;;;;;;;;5014200;28;20524;-79
2023/04/08 11:46:54;;;;;;;15.02;11.18;;;;;;;;;;4998522;28;20129;-80
2023/04/08 11:49:20;;;;;;;12.70;11.23;;;;;;;;;;5024701;28;20082;-79
2023/04/08 11:51:59;;;;;;;16.88;11.63;;;;;;;;;;5013899;28;20100;-80
2023/04/08 11:54:27;;;;;;;14.18;11.20;;;;;;;;;;5020208;28;20111;-79
2023/04/08 11:56:53;;;;;;;15.20;12.25;;;;;;;;;;5029842;28;20454;-77
2023/04/08 11:59:19;;;;;;;14.85;11.60;;;;;;;;;;5035693;28;21126;-78
2023/04/08 12:01:45;;;;;;;15.43;12.13;;;;;;;;;;5026082;28;20084;-79
2023/04/08 12:04:11;;;;;;;16.10;11.48;;;;;;;;;;5026569;28;20143;-80
2023/04/08 12:06:37;;;;;;;14.48;11.25;;;;;;;;;;5036956;28;20039;-79
2023/04/08 12:09:03;;;;;;;14.07;11.00;;;;;;;;;;5049820;28;20064;-81
2023/04/08 12:11:29;;;;;;;14.18;10.90;;;;;;;;;;5035595;28;20073;-76
2023/04/08 12:13:56;;;;;;;14.63;10.55;;;;;;;;;;5054466;28;20442;-80
2023/04/08 12:16:22;;;;;;;16.48;11.15;;;;;;;;;;5024720;28;20030;-83
2023/04/08 12:18:49;;;;;;;13.98;9.73;;;;;;;;;;5026370;28;20370;-79
2023/04/08 12:21:15;;;;;;;17.52;10.95;;;;;;;;;;5006802;28;20037;-79
2023/04/08 12:23:41;;;;;;;13.73;10.43;;;;;;;;;;5015974;28;20029;-78
2023/04/08 12:26:07;;;;;;;12.80;9.88;;;;;;;;;;5028588;28;20029;-80
2023/04/08 12:28:36;;;;;;;14.32;10.00;;;;;;;;;;5031380;28;20137;-79
2023/04/08 12:31:03;;;;;;;14.60;10.63;;;;;;;;;;5048123;28;20373;-77
2023/04/08 12:33:29;;;;;;;15.57;10.45;;;;;;;;;;5029095;28;20107;-76
2023/04/08 12:35:57;;;;;;;16.20;10.75;;;;;;;;;;5022910;28;20146;-73
2023/04/08 12:38:24;;;;;;;19.30;13.82;;;;;;;;;;5007484;28;20029;-77
2023/04/08 12:40:50;;;;;;;15.45;11.55;;;;;;;;;;5044399;28;20021;-77
2023/04/08 12:43:16;;;;;;;15.73;11.93;;;;;;;;;;5046239;28;20025;-78
2023/04/08 12:45:43;;;;;;;16.55;12.32;;;;;;;;;;5032178;28;20112;-77
2023/04/08 12:48:09;;;;;;;20.52;14.43;;;;;;;;;;5035063;28;20040;-78
2023/04/08 12:50:35;;;;;;;19.35;13.82;;;;;;;;;;5032605;28;20117;-76
2023/04/08 12:53:01;;;;;;;19.38;14.40;;;;;;;;;;5030280;28;20025;-77
2023/04/08 12:55:27;;;;;;;21.98;14.25;;;;;;;;;;5030510;28;20033;-77
2023/04/08 12:57:53;;;;;;;18.02;12.55;;;;;;;;;;5034249;28;20025;-77
2023/04/08 13:00:20;;;;;;;18.45;13.63;;;;;;;;;;5032396;28;20021;-77
2023/04/08 13:02:46;;;;;;;21.75;14.80;;;;;;;;;;5025662;28;20115;-77
2023/04/08 13:05:12;;;;;;;22.88;14.45;;;;;;;;;;5033324;28;20035;-78
2023/04/08 13:07:38;;;;;;;21.17;14.13;;;;;;;;;;5050081;28;20029;-77
2023/04/08 13:10:05;;;;;;;22.85;15.45;;;;;;;;;;5048092;28;20462;-79
2023/04/08 13:12:32;;;;;;;23.63;14.60;;;;;;;;;;5033611;28;20385;-77
2023/04/08 13:14:59;;;;;;;24.85;15.52;;;;;;;;;;5034317;28;20027;-77
2023/04/08 13:17:25;;;;;;;23.77;15.00;;;;;;;;;;5031446;28;20486;-77
2023/04/08 13:19:51;;;;;;;24.38;15.55;;;;;;;;;;5017049;28;20064;-77
2023/04/08 13:22:18;;;;;;;22.50;14.88;;;;;;;;;;5033833;28;20029;-76
2023/04/08 13:24:45;;;;;;;24.25;17.15;;;;;;;;;;5034120;28;20025;-76
2023/04/08 13:27:11;;;;;;;28.42;15.07;;;;;;;;;;5033827;28;20697;-77
2023/04/08 13:29:39;;;;;;;23.33;15.55;;;;;;;;;;5050642;28;20037;-76
2023/04/08 13:32:05;;;;;;;24.27;15.45;;;;;;;;;;5023339;28;20028;-79
2023/04/08 13:34:34;;;;;;;26.30;16.75;;;;;;;;;;5044628;28;20491;-76
2023/04/08 13:37:00;;;;;;;23.65;15.90;;;;;;;;;;5030335;28;20025;-77
2023/04/08 13:39:26;;;;;;;24.00;15.52;;;;;;;;;;5030444;28;20075;-77
2023/04/08 13:41:52;;;;;;;24.00;16.13;;;;;;;;;;5016257;28;20030;-77
2023/04/08 13:44:22;;;;;;;27.35;16.58;;;;;;;;;;5031886;28;20079;-77
2023/04/08 13:46:48;;;;;;;28.75;16.63;;;;;;;;;;5019038;28;20371;-76
2023/04/08 13:49:15;;;;;;;23.17;16.42;;;;;;;;;;5036625;28;20029;-76
2023/04/08 13:51:41;;;;;;;26.50;15.90;;;;;;;;;;5024412;28;20355;-76
2023/04/08 13:54:07;;;;;;;21.23;15.90;;;;;;;;;;5033339;28;20036;-76
2023/04/08 13:56:33;;;;;;;25.75;15.52;;;;;;;;;;5016418;28;20055;-77
2023/04/08 13:58:59;;;;;;;33.83;16.15;;;;;;;;;;5029321;28;20110;-76
2023/04/08 14:01:25;;;;;;;25.48;17.08;;;;;;;;;;5034751;28;20493;-77
2023/04/08 14:03:51;;;;;;;26.23;16.92;;;;;;;;;;5013939;28;20025;-79
2023/04/08 14:06:17;;;;;;;21.90;14.98;;;;;;;;;;5011784;28;20394;-77
2023/04/08 14:08:43;;;;;;;31.42;19.75;;;;;;;;;;5038116;28;20028;-78
2023/04/08 14:11:10;;;;;;;28.75;17.50;;;;;;;;;;5032274;28;20037;-77
2023/04/08 14:13:36;;;;;;;25.50;16.38;;;;;;;;;;5048568;28;20466;-78
2023/04/08 14:16:02;;;;;;;26.88;17.20;;;;;;;;;;5029545;28;20055;-78
2023/04/08 14:18:28;;;;;;;27.63;17.00;;;;;;;;;;5030381;28;20091;-77
2023/04/08 14:20:55;;;;;;;25.67;17.83;;;;;;;;;;5032790;28;20041;-77